createdAt,value
2022-08-09T00:00:25.550Z,0.93
2022-08-09T00:02:58.153Z,0.73
2022-08-09T00:06:18.272Z,1.23
2022-08-09T00:08:09.735Z,0.87
2022-08-09T00:10:40.399Z,0.80
2022-08-09T00:13:17.078Z,0.70
2022-08-09T00:15:57.539Z,0.80
2022-08-09T00:18:19.107Z,0.90
2022-08-09T00:20:51.398Z,1.00
2022-08-09T00:23:57.830Z,0.70
2022-08-09T00:25:56.909Z,0.80
2022-08-09T00:28:29.127Z,0.90
2022-08-09T00:31:00.979Z,1.03
2022-08-09T00:33:51.023Z,1.00
2022-08-09T00:36:09.003Z,0.70
2022-08-09T00:38:40.806Z,0.90
2022-08-09T00:44:16.792Z,1.30
2022-08-09T00:44:18.747Z,1.30
2022-08-09T00:46:56.018Z,1.00
2022-08-09T00:48:54.500Z,0.80
2022-08-09T00:51:27.982Z,0.80
2022-08-09T00:54:01.590Z,1.00
2022-08-09T00:56:33.591Z,0.77
2022-08-09T00:59:05.379Z,1.13
2022-08-09T01:01:44.379Z,0.90
2022-08-09T01:04:11.530Z,0.93
2022-08-09T01:06:53.863Z,1.00
2022-08-09T01:09:16.823Z,0.90
2022-08-09T01:11:55.396Z,1.03
2022-08-09T01:14:22.040Z,1.37
2022-08-09T01:16:55.492Z,1.00
2022-08-09T01:19:39.983Z,1.10
2022-08-09T01:22:01.121Z,1.10
2022-08-09T01:24:33.109Z,1.00
2022-08-09T01:27:05.713Z,1.10
2022-08-09T01:29:41.121Z,1.03
2022-08-09T01:32:43.907Z,1.00
2022-08-09T01:34:45.991Z,1.00
2022-08-09T01:37:42.799Z,1.07
2022-08-09T01:39:52.818Z,1.20
2022-08-09T01:42:24.977Z,1.33
2022-08-09T01:44:56.865Z,1.20
2022-08-09T01:47:31.425Z,1.07
2022-08-09T01:50:03.279Z,1.17
2022-08-09T01:52:36.709Z,1.20
2022-08-09T01:55:10.148Z,1.13
2022-08-09T01:57:45.868Z,0.90
2022-08-09T02:00:34.666Z,1.27
2022-08-09T02:02:49.412Z,1.20
2022-08-09T02:05:21.247Z,1.50
2022-08-09T02:08:40.946Z,1.30
2022-08-09T02:10:28.569Z,1.40
2022-08-09T02:13:01.505Z,1.63
2022-08-09T02:15:49.617Z,1.33
2022-08-09T02:18:09.876Z,1.27
2022-08-09T02:20:40.197Z,1.50
2022-08-09T02:23:11.988Z,1.53
2022-08-09T02:25:49.488Z,1.93
2022-08-09T02:28:17.999Z,1.53
2022-08-09T02:30:50.055Z,1.50
2022-08-09T02:33:23.658Z,2.00
2022-08-09T02:36:02.838Z,1.47
2022-08-09T02:38:30.556Z,1.83
2022-08-09T02:41:02.410Z,1.80
2022-08-09T02:43:53.445Z,1.50
2022-08-09T02:46:07.710Z,1.67
2022-08-09T02:48:39.568Z,1.80
2022-08-09T02:51:12.985Z,2.23
2022-08-09T02:53:52.915Z,1.70
2022-08-09T02:56:19.921Z,2.17
2022-08-09T02:58:52.893Z,1.33
2022-08-09T03:01:29.666Z,1.60
2022-08-09T03:04:16.924Z,1.80
2022-08-09T03:06:31.642Z,1.77
2022-08-09T03:09:04.772Z,1.83
2022-08-09T03:12:06.075Z,1.43
2022-08-09T03:14:11.279Z,2.00
2022-08-09T03:16:44.954Z,2.43
2022-08-09T03:19:52.260Z,1.63
2022-08-09T03:21:50.936Z,1.77
2022-08-09T03:24:31.670Z,1.83
2022-08-09T03:26:56.604Z,1.90
2022-08-09T03:29:28.458Z,2.20
2022-08-09T03:32:01.907Z,1.90
2022-08-09T03:34:34.131Z,1.60
2022-08-09T03:37:29.231Z,1.73
2022-08-09T03:39:39.466Z,1.60
2022-08-09T03:42:12.865Z,1.87
2022-08-09T03:44:46.399Z,1.83
2022-08-09T03:47:18.232Z,1.67
2022-08-09T03:49:58.767Z,2.07
2022-08-09T03:52:23.517Z,1.90
2022-08-09T03:54:56.978Z,2.30
2022-08-09T03:57:28.786Z,1.60
2022-08-09T04:00:02.274Z,1.90
2022-08-09T04:02:36.078Z,2.50
2022-08-09T04:05:17.266Z,1.63
2022-08-09T04:07:52.866Z,1.77
2022-08-09T04:10:15.085Z,1.67
2022-08-09T04:12:49.812Z,1.90
2022-08-09T04:15:40.437Z,1.77
2022-08-09T04:17:57.749Z,1.93
2022-08-09T04:20:28.891Z,1.80
2022-08-09T04:23:01.974Z,2.53
2022-08-09T04:25:34.174Z,2.13
2022-08-09T04:28:05.931Z,2.27
2022-08-09T04:30:37.747Z,1.40
2022-08-09T04:33:11.250Z,1.73
2022-08-09T04:35:43.114Z,2.27
2022-08-09T04:38:14.943Z,1.77
2022-08-09T04:40:46.955Z,2.40
2022-08-09T04:43:18.750Z,1.60
2022-08-09T04:45:53.191Z,2.07
2022-08-09T04:48:33.552Z,2.00
2022-08-09T04:50:57.526Z,1.83
2022-08-09T04:53:29.392Z,2.10
2022-08-09T04:56:02.888Z,2.10
2022-08-09T04:58:35.241Z,1.90
2022-08-09T05:01:16.069Z,1.70
2022-08-09T05:03:43.626Z,2.47
2022-08-09T05:06:27.287Z,1.90
2022-08-09T05:08:48.154Z,2.30
2022-08-09T05:11:20.468Z,1.97
2022-08-09T05:13:54.988Z,1.90
2022-08-09T05:16:31.568Z,2.87
2022-08-09T05:19:00.766Z,2.10
2022-08-09T05:21:46.494Z,2.23
2022-08-09T05:24:07.281Z,2.17
2022-08-09T05:26:46.235Z,2.00
2022-08-09T05:29:17.020Z,2.00
2022-08-09T05:31:56.166Z,2.67
2022-08-09T05:34:19.823Z,1.80
2022-08-09T05:36:51.639Z,2.30
2022-08-09T05:39:29.354Z,2.90
2022-08-09T05:42:01.574Z,2.37
2022-08-09T05:44:32.606Z,1.63
2022-08-09T05:47:05.821Z,1.80
2022-08-09T05:50:26.883Z,1.70
2022-08-09T05:52:11.302Z,2.50
2022-08-09T05:54:43.580Z,3.30
2022-08-09T05:57:17.566Z,2.13
2022-08-09T05:59:50.566Z,2.03
2022-08-09T06:02:22.585Z,2.23
2022-08-09T06:04:55.808Z,2.40
2022-08-09T06:07:27.735Z,1.60
2022-08-09T06:10:02.245Z,2.30
2022-08-09T06:12:33.201Z,2.07
2022-08-09T06:15:09.804Z,2.33
2022-08-09T06:17:40.659Z,1.50
2022-08-09T06:20:12.739Z,1.80
2022-08-09T06:22:46.397Z,1.80
2022-08-09T06:25:18.222Z,1.90
2022-08-09T06:27:52.044Z,1.73
2022-08-09T06:30:24.007Z,1.70
2022-08-09T06:33:39.453Z,2.20
2022-08-09T06:35:35.827Z,1.80
2022-08-09T06:38:06.720Z,2.87
2022-08-09T06:40:36.425Z,1.30
2022-08-09T06:43:10.625Z,1.70
2022-08-09T06:46:07.567Z,1.73
2022-08-09T06:48:16.667Z,1.40
2022-08-09T06:50:48.604Z,1.37
2022-08-09T06:53:20.570Z,1.50
2022-08-09T06:55:52.410Z,1.50
2022-08-09T06:58:40.711Z,1.73
2022-08-09T07:00:58.911Z,1.43
2022-08-09T07:03:31.161Z,1.03
2022-08-09T07:06:05.488Z,1.47
2022-08-09T07:08:39.640Z,1.20
2022-08-09T07:11:12.729Z,1.30
2022-08-09T07:13:45.267Z,1.50
2022-08-09T07:16:41.317Z,1.17
2022-08-09T07:18:51.575Z,1.30
2022-08-09T07:21:23.475Z,1.60
2022-08-09T07:23:58.189Z,1.57
2022-08-09T07:26:30.393Z,1.17
2022-08-09T07:29:11.716Z,1.20
2022-08-09T07:31:38.626Z,1.17
2022-08-09T07:34:19.561Z,1.13
2022-08-09T07:36:47.167Z,1.30
2022-08-09T07:39:41.126Z,1.10
2022-08-09T07:41:53.381Z,1.00
2022-08-09T07:44:33.042Z,2.47
2022-08-09T07:46:58.823Z,0.97
2022-08-09T07:49:30.666Z,1.00
2022-08-09T07:52:17.029Z,1.70
2022-08-09T07:54:37.678Z,1.00
2022-08-09T07:57:11.668Z,0.80
2022-08-09T07:59:51.093Z,0.90
2022-08-09T08:02:19.865Z,0.90
2022-08-09T08:04:53.603Z,0.57
2022-08-09T08:08:43.360Z,0.80
2022-08-09T08:10:07.821Z,0.53
2022-08-09T08:12:31.431Z,0.53
2022-08-09T08:15:03.321Z,0.70
2022-08-09T08:17:55.088Z,0.40
2022-08-09T08:20:12.749Z,0.60
2022-08-09T08:22:42.031Z,0.70
2022-08-09T08:25:14.379Z,0.70
2022-08-09T08:27:46.340Z,0.40
2022-08-09T08:30:20.060Z,0.50
2022-08-09T08:32:53.535Z,0.77
2022-08-09T08:35:25.598Z,0.70
2022-08-09T08:38:01.947Z,0.30
2022-08-09T08:40:32.440Z,0.80
2022-08-09T08:43:13.127Z,0.73
2022-08-09T08:45:38.879Z,0.50
2022-08-09T08:48:12.317Z,0.20
2022-08-09T08:50:49.357Z,0.30
2022-08-09T08:53:21.954Z,0.40
2022-08-09T08:55:52.857Z,1.03
2022-08-09T08:58:27.365Z,0.30
2022-08-09T09:00:58.585Z,0.27
2022-08-09T09:03:37.310Z,0.40
2022-08-09T09:06:05.764Z,0.77
2022-08-09T09:08:40.627Z,0.50
2022-08-09T09:11:17.264Z,0.47
2022-08-09T09:13:57.253Z,0.53
2022-08-09T09:16:18.101Z,0.43
2022-08-09T09:18:59.703Z,0.40
2022-08-09T09:21:26.023Z,0.40
2022-08-09T09:24:04.350Z,0.30
2022-08-09T09:26:31.792Z,0.40
2022-08-09T09:29:10.965Z,0.30
2022-08-09T09:32:04.421Z,0.30
2022-08-09T09:34:14.174Z,0.30
2022-08-09T09:36:52.967Z,0.20
2022-08-09T09:39:20.358Z,0.30
2022-08-09T09:41:54.279Z,0.30
2022-08-09T09:44:27.832Z,0.30
2022-08-09T09:47:00.529Z,0.10
2022-08-09T09:50:13.688Z,0.23
2022-08-09T09:52:05.923Z,0.30
2022-08-09T09:54:39.422Z,0.30
2022-08-09T09:58:01.005Z,0.40
2022-08-09T09:59:46.524Z,0.20
2022-08-09T10:02:20.086Z,0.30
2022-08-09T10:04:52.500Z,0.30
2022-08-09T10:07:24.321Z,0.30
2022-08-09T10:09:56.799Z,0.20
2022-08-09T10:12:29.658Z,0.30
2022-08-09T10:15:02.353Z,0.20
2022-08-09T10:17:50.400Z,0.20
2022-08-09T10:20:10.855Z,0.23
2022-08-09T10:22:41.792Z,0.30
2022-08-09T10:25:14.439Z,0.30
2022-08-09T10:27:57.075Z,0.30
2022-08-09T10:32:54.559Z,0.77
2022-08-09T10:35:27.304Z,0.20
2022-08-09T10:38:00.614Z,0.17
2022-08-09T10:40:40.917Z,0.10
2022-08-09T10:43:08.150Z,0.20
2022-08-09T10:45:49.289Z,0.30
2022-08-09T10:48:26.428Z,0.20
2022-08-09T10:50:46.816Z,0.27
2022-08-09T10:53:19.240Z,0.10
2022-08-09T10:55:58.390Z,0.20
2022-08-09T10:58:26.145Z,0.17
2022-08-09T11:03:02.203Z,0.47
2022-08-09T11:03:50.475Z,0.13
2022-08-09T11:06:05.320Z,0.30
2022-08-09T11:08:43.668Z,0.30
2022-08-09T11:11:12.016Z,0.20
2022-08-09T11:13:50.805Z,0.77
2022-08-09T11:16:33.474Z,0.40
2022-08-09T11:18:50.776Z,0.10
2022-08-09T11:21:24.191Z,0.30
2022-08-09T11:23:57.289Z,0.40
2022-08-09T11:26:30.628Z,0.47
2022-08-09T11:29:02.675Z,0.20
2022-08-09T11:31:36.802Z,0.20
2022-08-09T11:34:08.037Z,0.30
2022-08-09T11:36:40.760Z,0.20
2022-08-09T11:39:13.035Z,0.20
2022-08-09T11:41:46.119Z,0.40
2022-08-09T11:44:19.510Z,0.40
2022-08-09T11:46:51.326Z,0.20
2022-08-09T11:49:28.080Z,0.10
2022-08-09T11:53:02.283Z,0.30
2022-08-09T11:54:33.712Z,0.30
2022-08-09T11:57:03.708Z,0.20
2022-08-09T11:59:37.914Z,0.30
2022-08-09T12:02:17.346Z,0.20
2022-08-09T12:04:43.434Z,0.20
2022-08-09T12:07:16.440Z,0.20
2022-08-09T12:09:50.838Z,0.20
2022-08-09T12:12:29.050Z,0.20
2022-08-09T12:15:07.450Z,0.13
2022-08-09T12:17:42.862Z,0.20
2022-08-09T12:20:03.404Z,0.07
2022-08-09T12:22:36.077Z,0.13
2022-08-09T12:25:08.181Z,0.20
2022-08-09T12:29:15.411Z,0.23
2022-08-09T12:30:36.132Z,0.20
2022-08-09T12:32:48.725Z,0.20
2022-08-09T12:35:22.022Z,0.30
2022-08-09T12:37:54.092Z,0.30
2022-08-09T12:40:27.896Z,0.37
2022-08-09T12:42:59.676Z,0.20
2022-08-09T12:45:34.471Z,0.43
2022-08-09T12:48:04.903Z,0.20
2022-08-09T12:50:37.277Z,0.30
2022-08-09T12:53:19.400Z,0.30
2022-08-09T12:56:12.382Z,0.20
2022-08-09T12:58:28.025Z,0.40
2022-08-09T13:00:50.110Z,0.30
2022-08-09T13:03:28.256Z,0.30
2022-08-09T13:06:16.011Z,0.10
2022-08-09T13:08:40.142Z,0.20
2022-08-09T13:11:23.329Z,0.33
2022-08-09T13:14:41.854Z,0.68
2022-08-09T13:16:12.363Z,0.20
2022-08-09T13:18:45.045Z,0.30
2022-08-09T13:22:36.721Z,0.20
2022-08-09T13:24:16.696Z,0.60
2022-08-09T13:26:28.500Z,0.42
2022-08-09T13:28:59.400Z,0.20
2022-08-09T13:32:16.240Z,0.15
2022-08-09T13:34:04.638Z,0.37
2022-08-09T13:36:41.769Z,0.40
2022-08-09T13:41:55.828Z,0.30
2022-08-09T13:41:58.512Z,0.40
2022-08-09T13:44:18.291Z,0.20
2022-08-09T13:47:25.324Z,0.30
2022-08-09T13:49:24.913Z,0.30
2022-08-09T13:51:59.922Z,0.30
2022-08-09T13:54:33.710Z,0.30
2022-08-09T13:57:06.781Z,0.20
2022-08-09T13:59:42.134Z,0.15
2022-08-09T14:02:13.281Z,0.40
2022-08-09T14:04:49.465Z,0.20
2022-08-09T14:07:21.271Z,0.30
2022-08-09T14:09:53.302Z,0.50
2022-08-09T14:12:26.586Z,0.20
2022-08-09T14:14:58.472Z,0.28
2022-08-09T14:17:32.627Z,0.30
2022-08-09T14:20:06.162Z,0.30
2022-08-09T14:22:38.795Z,0.20
2022-08-09T14:25:11.094Z,0.30
2022-08-09T14:27:57.032Z,0.30
2022-08-09T14:30:35.970Z,0.20
2022-08-09T14:32:49.967Z,0.20
2022-08-09T14:35:21.781Z,0.40
2022-08-09T14:38:03.084Z,0.13
2022-08-09T14:40:37.888Z,0.57
2022-08-09T14:43:01.551Z,0.40
2022-08-09T14:46:57.171Z,0.40
2022-08-09T14:48:06.878Z,0.30
2022-08-09T14:50:39.481Z,0.23
2022-08-09T14:53:12.331Z,0.30
2022-08-09T14:55:47.728Z,0.20
2022-08-09T14:58:18.411Z,0.30
2022-08-09T15:00:52.007Z,0.20
2022-08-09T15:03:24.254Z,0.20
2022-08-09T15:06:00.146Z,0.30
2022-08-09T15:08:30.428Z,0.40
2022-08-09T15:11:05.038Z,0.40
2022-08-09T15:13:48.700Z,1.07
2022-08-09T15:16:09.469Z,0.50
2022-08-09T15:18:41.550Z,0.50
2022-08-09T15:21:54.684Z,0.37
2022-08-09T15:24:02.029Z,0.40
2022-08-09T15:26:31.475Z,0.23
2022-08-09T15:28:55.466Z,0.37
2022-08-09T15:31:28.463Z,0.30
2022-08-09T15:34:17.753Z,0.20
2022-08-09T15:36:34.366Z,0.37
2022-08-09T15:39:06.352Z,0.27
2022-08-09T15:41:38.208Z,0.50
2022-08-09T15:44:11.966Z,0.40
2022-08-09T15:46:45.698Z,0.67
2022-08-09T15:49:22.898Z,0.20
2022-08-09T15:52:03.422Z,0.47
2022-08-09T15:54:34.725Z,1.17
2022-08-09T15:56:59.592Z,0.30
2022-08-09T15:59:36.724Z,0.50
2022-08-09T16:02:06.210Z,0.40
2022-08-09T16:04:39.957Z,0.50
2022-08-09T16:07:13.420Z,0.30
2022-08-09T16:10:02.165Z,0.20
2022-08-09T16:12:18.682Z,0.40
2022-08-09T16:14:50.505Z,0.37
2022-08-09T16:17:23.226Z,0.30
2022-08-09T16:20:04.526Z,0.40
2022-08-09T16:22:30.394Z,0.40
2022-08-09T16:25:02.454Z,0.30
2022-08-09T16:27:36.064Z,1.07
2022-08-09T16:30:08.157Z,0.30
2022-08-09T16:32:43.194Z,0.23
2022-08-09T16:35:19.373Z,0.57
2022-08-09T16:37:54.497Z,0.47
2022-08-09T16:40:40.090Z,0.43
2022-08-09T16:42:55.469Z,0.30
2022-08-09T16:45:27.552Z,0.40
2022-08-09T16:48:40.829Z,0.40
2022-08-09T16:50:34.454Z,0.50
2022-08-09T16:53:06.793Z,0.40
2022-08-09T16:55:57.905Z,0.50
2022-08-09T16:58:13.711Z,0.40
2022-08-09T17:00:47.334Z,0.37
2022-08-09T17:03:21.621Z,0.43
2022-08-09T17:06:07.858Z,0.50
2022-08-09T17:08:42.840Z,0.57
2022-08-09T17:10:59.524Z,0.80
2022-08-09T17:13:34.310Z,0.37
2022-08-09T17:16:04.887Z,0.30
2022-08-09T17:18:36.687Z,0.40
2022-08-09T17:21:08.913Z,0.50
2022-08-09T17:24:28.452Z,0.50
2022-08-09T17:26:17.559Z,0.40
2022-08-09T17:28:48.720Z,0.33
2022-08-09T17:31:20.600Z,0.40
2022-08-09T17:33:54.021Z,0.33
2022-08-09T17:36:25.962Z,0.30
2022-08-09T17:38:58.708Z,0.20
2022-08-09T17:41:38.897Z,0.40
2022-08-09T17:44:41.839Z,0.50
2022-08-09T17:46:38.414Z,0.50
2022-08-09T17:49:10.259Z,0.30
2022-08-09T17:51:42.096Z,0.67
2022-08-09T17:54:15.244Z,0.20
2022-08-09T17:56:47.215Z,0.40
2022-08-09T17:59:19.001Z,0.60
2022-08-09T18:02:07.536Z,0.33
2022-08-09T18:04:25.032Z,0.33
2022-08-09T18:06:56.901Z,0.10
2022-08-09T18:09:40.302Z,0.40
2022-08-09T18:12:15.157Z,0.30
2022-08-09T18:14:35.622Z,0.40
2022-08-09T18:17:07.450Z,0.40
2022-08-09T18:20:54.130Z,0.23
2022-08-09T18:22:17.203Z,0.40
2022-08-09T18:24:47.310Z,0.27
2022-08-09T18:27:19.112Z,0.20
2022-08-09T18:30:39.327Z,0.30
2022-08-09T18:32:26.784Z,0.20
2022-08-09T18:34:58.701Z,0.40
2022-08-09T18:37:48.047Z,0.30
2022-08-09T18:40:04.746Z,0.40
2022-08-09T18:42:37.880Z,0.47
2022-08-09T18:45:09.702Z,0.40
2022-08-09T18:47:43.183Z,0.40
2022-08-09T18:50:15.522Z,0.40
2022-08-09T18:52:50.953Z,0.23
2022-08-09T18:55:29.151Z,0.27
2022-08-09T18:57:54.222Z,0.30
2022-08-09T19:00:27.670Z,0.20
2022-08-09T19:02:59.538Z,0.40
2022-08-09T19:06:02.149Z,0.50
2022-08-09T19:08:10.183Z,0.40
2022-08-09T19:10:39.229Z,0.30
2022-08-09T19:13:19.279Z,0.40
2022-08-09T19:15:45.101Z,0.30
2022-08-09T19:18:36.415Z,0.20
2022-08-09T19:20:52.224Z,0.27
2022-08-09T19:24:37.209Z,0.30
2022-08-09T19:26:02.171Z,0.30
2022-08-09T19:28:32.583Z,0.40
2022-08-09T19:31:04.392Z,0.40
2022-08-09T19:33:37.895Z,0.27
2022-08-09T19:36:11.724Z,0.77
2022-08-09T19:38:43.308Z,0.30
2022-08-09T19:41:33.538Z,0.47
2022-08-09T19:44:01.010Z,0.40
2022-08-09T19:46:34.176Z,0.30
2022-08-09T19:49:02.433Z,0.30
2022-08-09T19:51:31.308Z,0.30
2022-08-09T19:54:03.202Z,0.30
2022-08-09T19:56:41.184Z,0.30
2022-08-09T19:59:39.245Z,0.30
2022-08-09T20:02:05.339Z,0.83
2022-08-09T20:04:33.465Z,0.20
2022-08-09T20:06:50.678Z,0.33
2022-08-09T20:09:43.607Z,0.80
2022-08-09T20:11:55.948Z,0.37
2022-08-09T20:14:29.381Z,0.30
2022-08-09T20:17:02.407Z,0.30
2022-08-09T20:19:48.490Z,0.30
2022-08-09T20:22:09.907Z,0.37
2022-08-09T20:24:41.167Z,0.30
2022-08-09T20:27:15.377Z,0.40
2022-08-09T20:29:48.145Z,0.30
2022-08-09T20:32:30.027Z,0.30
2022-08-09T20:34:54.306Z,0.50
2022-08-09T20:38:18.979Z,0.40
2022-08-09T20:40:15.080Z,0.30
2022-08-09T20:42:33.202Z,0.23
2022-08-09T20:45:58.716Z,0.30
2022-08-09T20:47:47.937Z,0.40
2022-08-09T20:50:14.758Z,0.30
2022-08-09T20:52:45.568Z,0.40
2022-08-09T20:55:17.999Z,0.73
2022-08-09T20:58:05.663Z,0.30
2022-08-09T21:00:31.836Z,0.40
2022-08-09T21:02:59.635Z,0.30
2022-08-09T21:05:57.087Z,0.50
2022-08-09T21:08:05.258Z,0.40
2022-08-09T21:10:37.157Z,0.40
2022-08-09T21:13:12.412Z,0.30
2022-08-09T21:15:51.899Z,0.23
2022-08-09T21:18:24.668Z,0.43
2022-08-09T21:20:54.702Z,0.50
2022-08-09T21:23:36.027Z,0.40
2022-08-09T21:25:59.729Z,0.30
2022-08-09T21:28:34.470Z,0.30
2022-08-09T21:31:16.501Z,0.40
2022-08-09T21:33:38.467Z,0.50
2022-08-09T21:36:11.466Z,0.47
2022-08-09T21:38:43.418Z,0.90
2022-08-09T21:41:17.144Z,0.43
2022-08-09T21:43:56.825Z,0.40
2022-08-09T21:46:22.277Z,0.43
2022-08-09T21:48:55.738Z,0.30
2022-08-09T21:51:36.207Z,0.30
2022-08-09T21:54:01.949Z,0.50
2022-08-09T21:56:44.643Z,0.50
2022-08-09T21:59:07.233Z,0.40
2022-08-09T22:01:58.764Z,0.77
2022-08-09T22:04:12.552Z,0.40
2022-08-09T22:06:55.345Z,0.50
2022-08-09T22:09:19.445Z,0.33
2022-08-09T22:12:17.480Z,0.40
2022-08-09T22:14:27.120Z,0.40
2022-08-09T22:16:59.374Z,0.40
2022-08-09T22:19:59.015Z,0.47
2022-08-09T22:22:06.202Z,0.40
2022-08-09T22:24:38.545Z,0.60
2022-08-09T22:33:10.209Z,1.07
2022-08-09T22:36:02.323Z,0.70
2022-08-09T22:38:15.701Z,0.60
2022-08-09T22:40:48.945Z,0.40
2022-08-09T22:44:00.700Z,0.57
2022-08-09T22:48:10.861Z,0.50
2022-08-09T22:48:35.321Z,0.47
2022-08-09T22:51:01.620Z,0.50
2022-08-09T22:53:58.616Z,0.63
2022-08-09T22:56:31.006Z,0.60
2022-08-09T22:58:42.086Z,0.30
2022-08-09T23:01:14.527Z,0.57
2022-08-09T23:04:03.957Z,0.53
2022-08-09T23:06:29.975Z,1.03
2022-08-09T23:08:54.868Z,0.37
2022-08-09T23:11:26.687Z,0.60
2022-08-09T23:13:58.636Z,0.80
2022-08-09T23:16:30.467Z,0.37
2022-08-09T23:19:02.339Z,0.50
2022-08-09T23:21:35.927Z,0.40
2022-08-09T23:24:07.742Z,0.50
2022-08-09T23:26:39.638Z,0.30
2022-08-09T23:29:11.468Z,0.60
2022-08-09T23:31:43.336Z,0.63
2022-08-09T23:34:15.407Z,0.43
2022-08-09T23:36:47.242Z,0.40
2022-08-09T23:39:19.147Z,0.40
2022-08-09T23:41:50.956Z,0.40
2022-08-09T23:44:22.872Z,0.40
2022-08-09T23:46:57.281Z,0.43
2022-08-09T23:49:28.391Z,0.40
2022-08-09T23:52:00.251Z,0.30
2022-08-09T23:54:32.095Z,0.30
2022-08-09T23:57:03.907Z,0.50
2022-08-09T23:59:36.271Z,0.40
